sensor_id;sensor_type;location;lat;lon;timestamp;P1;durP1;ratioP1;P2;durP2;ratioP2
65863;SDS011;52639;51.180;20.460;2022-07-21T00:02:39;12.52;;;6.68;;
65863;SDS011;52639;51.180;20.460;2022-07-21T00:06:43;9.27;;;6.13;;
65863;SDS011;52639;51.180;20.460;2022-07-21T00:10:46;9.35;;;6.22;;
65863;SDS011;52639;51.180;20.460;2022-07-21T00:14:49;9.73;;;6.35;;
65863;SDS011;52639;51.180;20.460;2022-07-21T00:18:52;8.90;;;6.20;;
65863;SDS011;52639;51.180;20.460;2022-07-21T00:22:56;8.98;;;6.28;;
65863;SDS011;52639;51.180;20.460;2022-07-21T00:26:59;10.70;;;6.32;;
65863;SDS011;52639;51.180;20.460;2022-07-21T00:31:02;10.20;;;6.00;;
65863;SDS011;52639;51.180;20.460;2022-07-21T00:35:06;12.30;;;6.28;;
65863;SDS011;52639;51.180;20.460;2022-07-21T00:39:11;10.13;;;6.13;;
65863;SDS011;52639;51.180;20.460;2022-07-21T00:43:14;8.95;;;5.93;;
65863;SDS011;52639;51.180;20.460;2022-07-21T00:47:18;9.45;;;6.43;;
65863;SDS011;52639;51.180;20.460;2022-07-21T00:51:21;12.57;;;6.78;;
65863;SDS011;52639;51.180;20.460;2022-07-21T00:55:25;12.20;;;6.53;;
65863;SDS011;52639;51.180;20.460;2022-07-21T00:59:28;10.77;;;6.13;;
65863;SDS011;52639;51.180;20.460;2022-07-21T01:03:31;10.02;;;6.88;;
65863;SDS011;52639;51.180;20.460;2022-07-21T01:07:34;12.32;;;6.75;;
65863;SDS011;52639;51.180;20.460;2022-07-21T01:11:38;10.38;;;6.03;;
65863;SDS011;52639;51.180;20.460;2022-07-21T01:15:41;10.82;;;6.43;;
65863;SDS011;52639;51.180;20.460;2022-07-21T01:19:44;10.85;;;6.53;;
65863;SDS011;52639;51.180;20.460;2022-07-21T01:23:49;11.18;;;6.20;;
65863;SDS011;52639;51.180;20.460;2022-07-21T01:27:51;10.02;;;6.18;;
65863;SDS011;52639;51.180;20.460;2022-07-21T01:31:55;8.70;;;6.03;;
65863;SDS011;52639;51.180;20.460;2022-07-21T01:35:57;12.82;;;6.63;;
65863;SDS011;52639;51.180;20.460;2022-07-21T01:40:01;8.52;;;6.50;;
65863;SDS011;52639;51.180;20.460;2022-07-21T01:44:21;8.43;;;6.00;;
65863;SDS011;52639;51.180;20.460;2022-07-21T01:48:24;12.65;;;6.07;;
65863;SDS011;52639;51.180;20.460;2022-07-21T01:52:27;9.23;;;6.47;;
65863;SDS011;52639;51.180;20.460;2022-07-21T01:56:31;259.02;;;128.73;;
65863;SDS011;52639;51.180;20.460;2022-07-21T02:00:33;266.48;;;148.32;;
65863;SDS011;52639;51.180;20.460;2022-07-21T02:04:36;115.93;;;69.05;;
65863;SDS011;52639;51.180;20.460;2022-07-21T02:08:42;52.00;;;34.47;;
65863;SDS011;52639;51.180;20.460;2022-07-21T02:12:46;28.58;;;18.63;;
65863;SDS011;52639;51.180;20.460;2022-07-21T02:16:48;12.13;;;9.63;;
65863;SDS011;52639;51.180;20.460;2022-07-21T02:20:51;15.32;;;7.47;;
65863;SDS011;52639;51.180;20.460;2022-07-21T02:24:54;11.75;;;6.60;;
65863;SDS011;52639;51.180;20.460;2022-07-21T02:28:59;10.88;;;7.03;;
65863;SDS011;52639;51.180;20.460;2022-07-21T02:33:01;16.85;;;10.60;;
65863;SDS011;52639;51.180;20.460;2022-07-21T02:37:04;11.43;;;8.70;;
65863;SDS011;52639;51.180;20.460;2022-07-21T02:41:07;10.90;;;6.97;;
65863;SDS011;52639;51.180;20.460;2022-07-21T02:45:11;10.55;;;6.68;;
65863;SDS011;52639;51.180;20.460;2022-07-21T02:49:13;11.10;;;7.72;;
65863;SDS011;52639;51.180;20.460;2022-07-21T02:53:17;10.38;;;7.25;;
65863;SDS011;52639;51.180;20.460;2022-07-21T02:57:20;10.73;;;7.68;;
65863;SDS011;52639;51.180;20.460;2022-07-21T03:01:24;13.20;;;8.25;;
65863;SDS011;52639;51.180;20.460;2022-07-21T03:05:27;13.48;;;8.65;;
65863;SDS011;52639;51.180;20.460;2022-07-21T03:09:30;13.25;;;8.98;;
65863;SDS011;52639;51.180;20.460;2022-07-21T03:13:33;13.82;;;8.48;;
65863;SDS011;52639;51.180;20.460;2022-07-21T03:17:37;12.85;;;7.80;;
65863;SDS011;52639;51.180;20.460;2022-07-21T03:21:40;11.35;;;7.63;;
65863;SDS011;52639;51.180;20.460;2022-07-21T03:25:42;11.38;;;7.07;;
65863;SDS011;52639;51.180;20.460;2022-07-21T03:29:45;13.18;;;6.95;;
65863;SDS011;52639;51.180;20.460;2022-07-21T03:33:49;9.70;;;6.47;;
65863;SDS011;52639;51.180;20.460;2022-07-21T03:37:52;10.20;;;6.35;;
65863;SDS011;52639;51.180;20.460;2022-07-21T03:41:56;13.32;;;6.85;;
65863;SDS011;52639;51.180;20.460;2022-07-21T03:45:59;10.57;;;6.63;;
65863;SDS011;52639;51.180;20.460;2022-07-21T03:50:04;9.88;;;6.70;;
65863;SDS011;52639;51.180;20.460;2022-07-21T03:54:07;11.40;;;6.75;;
65863;SDS011;52639;51.180;20.460;2022-07-21T03:58:11;12.50;;;6.22;;
65863;SDS011;52639;51.180;20.460;2022-07-21T04:02:14;9.07;;;6.13;;
65863;SDS011;52639;51.180;20.460;2022-07-21T04:06:18;10.63;;;6.40;;
65863;SDS011;52639;51.180;20.460;2022-07-21T04:10:22;9.80;;;6.30;;
65863;SDS011;52639;51.180;20.460;2022-07-21T04:14:27;9.35;;;5.80;;
65863;SDS011;52639;51.180;20.460;2022-07-21T04:18:29;10.02;;;6.00;;
65863;SDS011;52639;51.180;20.460;2022-07-21T04:22:34;9.18;;;5.45;;
65863;SDS011;52639;51.180;20.460;2022-07-21T04:26:36;11.13;;;5.70;;
65863;SDS011;52639;51.180;20.460;2022-07-21T04:30:39;12.88;;;6.68;;
65863;SDS011;52639;51.180;20.460;2022-07-21T04:34:42;8.30;;;5.35;;
65863;SDS011;52639;51.180;20.460;2022-07-21T04:38:46;8.60;;;5.82;;
65863;SDS011;52639;51.180;20.460;2022-07-21T04:42:49;8.43;;;5.47;;
65863;SDS011;52639;51.180;20.460;2022-07-21T04:46:51;11.85;;;6.38;;
65863;SDS011;52639;51.180;20.460;2022-07-21T04:50:54;10.90;;;5.70;;
65863;SDS011;52639;51.180;20.460;2022-07-21T04:54:58;10.00;;;5.32;;
65863;SDS011;52639;51.180;20.460;2022-07-21T04:59:01;10.55;;;5.35;;
65863;SDS011;52639;51.180;20.460;2022-07-21T05:03:04;9.05;;;5.43;;
65863;SDS011;52639;51.180;20.460;2022-07-21T05:07:07;10.55;;;5.72;;
65863;SDS011;52639;51.180;20.460;2022-07-21T05:11:11;9.57;;;6.32;;
65863;SDS011;52639;51.180;20.460;2022-07-21T05:15:13;10.50;;;5.57;;
65863;SDS011;52639;51.180;20.460;2022-07-21T05:19:18;13.13;;;8.45;;
65863;SDS011;52639;51.180;20.460;2022-07-21T05:23:22;8.07;;;5.05;;
65863;SDS011;52639;51.180;20.460;2022-07-21T05:27:31;9.13;;;6.00;;
65863;SDS011;52639;51.180;20.460;2022-07-21T05:31:36;12.98;;;7.13;;
65863;SDS011;52639;51.180;20.460;2022-07-21T05:35:45;8.65;;;5.72;;
65863;SDS011;52639;51.180;20.460;2022-07-21T05:40:09;10.57;;;6.30;;
65863;SDS011;52639;51.180;20.460;2022-07-21T05:44:15;9.15;;;5.50;;
65863;SDS011;52639;51.180;20.460;2022-07-21T05:48:18;10.20;;;6.32;;
65863;SDS011;52639;51.180;20.460;2022-07-21T05:52:21;10.60;;;6.78;;
65863;SDS011;52639;51.180;20.460;2022-07-21T05:56:24;8.00;;;5.00;;
65863;SDS011;52639;51.180;20.460;2022-07-21T06:00:29;10.07;;;4.63;;
65863;SDS011;52639;51.180;20.460;2022-07-21T06:04:32;8.57;;;5.30;;
65863;SDS011;52639;51.180;20.460;2022-07-21T06:08:36;24.90;;;22.67;;
65863;SDS011;52639;51.180;20.460;2022-07-21T06:12:40;10.20;;;5.20;;
65863;SDS011;52639;51.180;20.460;2022-07-21T06:16:46;7.97;;;4.50;;
65863;SDS011;52639;51.180;20.460;2022-07-21T06:20:49;7.75;;;5.70;;
65863;SDS011;52639;51.180;20.460;2022-07-21T06:24:53;8.35;;;4.18;;
65863;SDS011;52639;51.180;20.460;2022-07-21T06:28:57;10.80;;;4.82;;
65863;SDS011;52639;51.180;20.460;2022-07-21T06:33:02;7.40;;;4.40;;
65863;SDS011;52639;51.180;20.460;2022-07-21T06:37:05;7.25;;;4.30;;
65863;SDS011;52639;51.180;20.460;2022-07-21T06:41:08;6.90;;;4.18;;
65863;SDS011;52639;51.180;20.460;2022-07-21T06:45:11;8.77;;;3.92;;
65863;SDS011;52639;51.180;20.460;2022-07-21T06:49:16;7.47;;;3.80;;
65863;SDS011;52639;51.180;20.460;2022-07-21T06:53:19;8.15;;;4.25;;
65863;SDS011;52639;51.180;20.460;2022-07-21T06:57:24;8.25;;;4.25;;
65863;SDS011;52639;51.180;20.460;2022-07-21T07:01:27;7.30;;;4.18;;
65863;SDS011;52639;51.180;20.460;2022-07-21T07:05:32;6.85;;;3.70;;
65863;SDS011;52639;51.180;20.460;2022-07-21T07:09:36;7.32;;;4.22;;
65863;SDS011;52639;51.180;20.460;2022-07-21T07:13:39;8.55;;;3.65;;
65863;SDS011;52639;51.180;20.460;2022-07-21T07:17:43;6.93;;;3.15;;
65863;SDS011;52639;51.180;20.460;2022-07-21T07:21:48;6.47;;;3.55;;
65863;SDS011;52639;51.180;20.460;2022-07-21T07:25:51;5.68;;;3.47;;
65863;SDS011;52639;51.180;20.460;2022-07-21T07:29:54;6.50;;;3.80;;
65863;SDS011;52639;51.180;20.460;2022-07-21T07:33:57;59.22;;;27.73;;
65863;SDS011;52639;51.180;20.460;2022-07-21T07:38:03;66.13;;;25.77;;
65863;SDS011;52639;51.180;20.460;2022-07-21T07:42:07;35.38;;;12.93;;
65863;SDS011;52639;51.180;20.460;2022-07-21T07:46:14;22.15;;;8.98;;
65863;SDS011;52639;51.180;20.460;2022-07-21T07:50:18;5.65;;;2.83;;
65863;SDS011;52639;51.180;20.460;2022-07-21T07:54:30;7.60;;;3.13;;
65863;SDS011;52639;51.180;20.460;2022-07-21T07:58:35;8.50;;;4.22;;
65863;SDS011;52639;51.180;20.460;2022-07-21T08:02:42;16.50;;;7.00;;
65863;SDS011;52639;51.180;20.460;2022-07-21T08:06:48;6.68;;;3.33;;
65863;SDS011;52639;51.180;20.460;2022-07-21T08:10:56;7.70;;;3.30;;
65863;SDS011;52639;51.180;20.460;2022-07-21T08:15:00;4.90;;;2.97;;
65863;SDS011;52639;51.180;20.460;2022-07-21T08:19:04;7.43;;;5.93;;
65863;SDS011;52639;51.180;20.460;2022-07-21T08:23:09;4.47;;;3.00;;
65863;SDS011;52639;51.180;20.460;2022-07-21T08:27:15;4.88;;;3.00;;
65863;SDS011;52639;51.180;20.460;2022-07-21T08:31:19;5.28;;;3.05;;
65863;SDS011;52639;51.180;20.460;2022-07-21T08:35:26;7.65;;;3.72;;
65863;SDS011;52639;51.180;20.460;2022-07-21T08:39:29;5.38;;;3.42;;
65863;SDS011;52639;51.180;20.460;2022-07-21T08:43:35;7.22;;;2.90;;
65863;SDS011;52639;51.180;20.460;2022-07-21T08:47:41;6.68;;;2.70;;
65863;SDS011;52639;51.180;20.460;2022-07-21T08:51:46;5.38;;;2.78;;
65863;SDS011;52639;51.180;20.460;2022-07-21T08:55:50;6.43;;;3.08;;
65863;SDS011;52639;51.180;20.460;2022-07-21T08:59:57;4.78;;;2.78;;
65863;SDS011;52639;51.180;20.460;2022-07-21T09:04:05;7.95;;;3.08;;
65863;SDS011;52639;51.180;20.460;2022-07-21T09:08:25;5.75;;;2.97;;
65863;SDS011;52639;51.180;20.460;2022-07-21T09:12:32;6.18;;;2.97;;
65863;SDS011;52639;51.180;20.460;2022-07-21T09:16:53;6.50;;;3.00;;
65863;SDS011;52639;51.180;20.460;2022-07-21T09:20:58;5.80;;;2.78;;
65863;SDS011;52639;51.180;20.460;2022-07-21T09:25:03;7.65;;;3.03;;
65863;SDS011;52639;51.180;20.460;2022-07-21T09:29:09;4.88;;;2.40;;
65863;SDS011;52639;51.180;20.460;2022-07-21T09:37:43;4.43;;;2.30;;
65863;SDS011;52639;51.180;20.460;2022-07-21T09:41:46;3.33;;;2.40;;
65863;SDS011;52639;51.180;20.460;2022-07-21T09:45:50;4.13;;;2.55;;
65863;SDS011;52639;51.180;20.460;2022-07-21T09:50:00;5.13;;;2.45;;
65863;SDS011;52639;51.180;20.460;2022-07-21T09:54:06;4.53;;;2.50;;
65863;SDS011;52639;51.180;20.460;2022-07-21T09:58:12;3.58;;;2.40;;
65863;SDS011;52639;51.180;20.460;2022-07-21T10:02:18;5.10;;;2.78;;
65863;SDS011;52639;51.180;20.460;2022-07-21T10:06:26;6.30;;;2.40;;
65863;SDS011;52639;51.180;20.460;2022-07-21T10:10:31;4.32;;;2.20;;
65863;SDS011;52639;51.180;20.460;2022-07-21T10:14:35;6.20;;;2.30;;
65863;SDS011;52639;51.180;20.460;2022-07-21T10:18:45;4.20;;;2.40;;
65863;SDS011;52639;51.180;20.460;2022-07-21T10:23:06;5.25;;;2.17;;
65863;SDS011;52639;51.180;20.460;2022-07-21T10:27:18;4.43;;;2.10;;
65863;SDS011;52639;51.180;20.460;2022-07-21T10:31:27;4.88;;;2.00;;
65863;SDS011;52639;51.180;20.460;2022-07-21T10:35:32;5.38;;;2.22;;
65863;SDS011;52639;51.180;20.460;2022-07-21T10:39:38;4.13;;;2.03;;
65863;SDS011;52639;51.180;20.460;2022-07-21T10:43:42;5.65;;;2.10;;
65863;SDS011;52639;51.180;20.460;2022-07-21T10:47:50;3.78;;;2.40;;
65863;SDS011;52639;51.180;20.460;2022-07-21T10:51:53;4.10;;;2.55;;
65863;SDS011;52639;51.180;20.460;2022-07-21T10:55:58;3.28;;;2.05;;
65863;SDS011;52639;51.180;20.460;2022-07-21T11:00:19;5.82;;;2.45;;
65863;SDS011;52639;51.180;20.460;2022-07-21T11:04:30;6.88;;;2.70;;
65863;SDS011;52639;51.180;20.460;2022-07-21T11:08:35;5.35;;;2.55;;
65863;SDS011;52639;51.180;20.460;2022-07-21T11:12:58;3.17;;;2.28;;
65863;SDS011;52639;51.180;20.460;2022-07-21T11:17:02;6.10;;;2.72;;
65863;SDS011;52639;51.180;20.460;2022-07-21T11:21:10;8.13;;;2.85;;
65863;SDS011;52639;51.180;20.460;2022-07-21T11:25:17;6.13;;;2.78;;
65863;SDS011;52639;51.180;20.460;2022-07-21T11:29:26;6.00;;;2.60;;
65863;SDS011;52639;51.180;20.460;2022-07-21T11:33:31;6.45;;;2.72;;
65863;SDS011;52639;51.180;20.460;2022-07-21T11:37:38;5.43;;;2.50;;
65863;SDS011;52639;51.180;20.460;2022-07-21T11:41:43;3.78;;;2.20;;
65863;SDS011;52639;51.180;20.460;2022-07-21T11:45:52;5.35;;;2.50;;
65863;SDS011;52639;51.180;20.460;2022-07-21T11:49:57;4.80;;;2.40;;
65863;SDS011;52639;51.180;20.460;2022-07-21T11:54:03;5.35;;;2.60;;
65863;SDS011;52639;51.180;20.460;2022-07-21T11:58:12;4.53;;;2.70;;
65863;SDS011;52639;51.180;20.460;2022-07-21T12:02:19;4.28;;;2.50;;
65863;SDS011;52639;51.180;20.460;2022-07-21T12:06:27;11.38;;;3.35;;
65863;SDS011;52639;51.180;20.460;2022-07-21T12:10:35;5.85;;;2.55;;
65863;SDS011;52639;51.180;20.460;2022-07-21T12:14:42;7.40;;;2.75;;
65863;SDS011;52639;51.180;20.460;2022-07-21T12:23:21;6.30;;;2.80;;
65863;SDS011;52639;51.180;20.460;2022-07-21T12:27:27;6.03;;;2.72;;
65863;SDS011;52639;51.180;20.460;2022-07-21T12:31:32;5.70;;;2.80;;
65863;SDS011;52639;51.180;20.460;2022-07-21T12:35:40;3.53;;;2.40;;
65863;SDS011;52639;51.180;20.460;2022-07-21T12:44:03;5.10;;;2.35;;
65863;SDS011;52639;51.180;20.460;2022-07-21T12:48:07;4.50;;;2.58;;
65863;SDS011;52639;51.180;20.460;2022-07-21T12:52:14;7.50;;;2.88;;
65863;SDS011;52639;51.180;20.460;2022-07-21T12:56:24;3.90;;;2.47;;
65863;SDS011;52639;51.180;20.460;2022-07-21T13:00:43;8.02;;;2.88;;
65863;SDS011;52639;51.180;20.460;2022-07-21T13:09:01;4.07;;;2.80;;
65863;SDS011;52639;51.180;20.460;2022-07-21T13:13:09;4.23;;;2.77;;
65863;SDS011;52639;51.180;20.460;2022-07-21T13:17:19;4.28;;;2.60;;
65863;SDS011;52639;51.180;20.460;2022-07-21T13:21:28;6.68;;;2.80;;
65863;SDS011;52639;51.180;20.460;2022-07-21T13:25:46;6.00;;;2.55;;
65863;SDS011;52639;51.180;20.460;2022-07-21T13:29:55;6.80;;;2.72;;
65863;SDS011;52639;51.180;20.460;2022-07-21T13:34:03;5.38;;;2.63;;
65863;SDS011;52639;51.180;20.460;2022-07-21T13:38:15;5.10;;;3.00;;
65863;SDS011;52639;51.180;20.460;2022-07-21T13:42:31;5.65;;;2.88;;
65863;SDS011;52639;51.180;20.460;2022-07-21T13:46:38;4.75;;;2.90;;
65863;SDS011;52639;51.180;20.460;2022-07-21T13:50:45;4.97;;;2.60;;
65863;SDS011;52639;51.180;20.460;2022-07-21T13:54:51;4.72;;;2.50;;
65863;SDS011;52639;51.180;20.460;2022-07-21T13:58:57;5.47;;;2.70;;
65863;SDS011;52639;51.180;20.460;2022-07-21T14:03:00;8.77;;;3.15;;
65863;SDS011;52639;51.180;20.460;2022-07-21T14:07:03;5.75;;;2.95;;
65863;SDS011;52639;51.180;20.460;2022-07-21T14:11:07;4.75;;;2.67;;
65863;SDS011;52639;51.180;20.460;2022-07-21T14:15:17;8.30;;;2.83;;
65863;SDS011;52639;51.180;20.460;2022-07-21T14:19:20;6.38;;;2.80;;
65863;SDS011;52639;51.180;20.460;2022-07-21T14:23:25;4.63;;;2.80;;
65863;SDS011;52639;51.180;20.460;2022-07-21T14:27:32;6.38;;;2.90;;
65863;SDS011;52639;51.180;20.460;2022-07-21T14:31:37;5.28;;;2.50;;
65863;SDS011;52639;51.180;20.460;2022-07-21T14:35:41;6.47;;;3.08;;
65863;SDS011;52639;51.180;20.460;2022-07-21T14:39:49;6.18;;;2.88;;
65863;SDS011;52639;51.180;20.460;2022-07-21T14:43:58;5.25;;;2.78;;
65863;SDS011;52639;51.180;20.460;2022-07-21T14:48:05;5.38;;;2.80;;
65863;SDS011;52639;51.180;20.460;2022-07-21T14:52:09;7.90;;;3.40;;
65863;SDS011;52639;51.180;20.460;2022-07-21T14:56:14;8.02;;;2.90;;
65863;SDS011;52639;51.180;20.460;2022-07-21T15:00:20;4.13;;;2.90;;
65863;SDS011;52639;51.180;20.460;2022-07-21T15:04:27;7.00;;;3.13;;
65863;SDS011;52639;51.180;20.460;2022-07-21T15:08:32;4.78;;;2.80;;
65863;SDS011;52639;51.180;20.460;2022-07-21T15:12:36;5.03;;;2.75;;
65863;SDS011;52639;51.180;20.460;2022-07-21T15:16:39;9.00;;;6.70;;
65863;SDS011;52639;51.180;20.460;2022-07-21T15:20:49;6.35;;;2.60;;
65863;SDS011;52639;51.180;20.460;2022-07-21T15:24:56;5.85;;;2.90;;
65863;SDS011;52639;51.180;20.460;2022-07-21T15:28:59;6.53;;;3.00;;
65863;SDS011;52639;51.180;20.460;2022-07-21T15:33:03;6.05;;;2.92;;
65863;SDS011;52639;51.180;20.460;2022-07-21T15:37:08;6.35;;;3.25;;
65863;SDS011;52639;51.180;20.460;2022-07-21T15:41:12;5.65;;;3.22;;
65863;SDS011;52639;51.180;20.460;2022-07-21T15:45:16;4.97;;;3.25;;
65863;SDS011;52639;51.180;20.460;2022-07-21T15:49:19;8.82;;;3.05;;
65863;SDS011;52639;51.180;20.460;2022-07-21T15:53:24;6.57;;;2.88;;
65863;SDS011;52639;51.180;20.460;2022-07-21T15:57:28;5.55;;;2.85;;
65863;SDS011;52639;51.180;20.460;2022-07-21T16:01:36;4.45;;;3.05;;
65863;SDS011;52639;51.180;20.460;2022-07-21T16:05:42;5.47;;;2.83;;
65863;SDS011;52639;51.180;20.460;2022-07-21T16:09:47;5.70;;;3.28;;
65863;SDS011;52639;51.180;20.460;2022-07-21T16:13:50;8.32;;;3.00;;
65863;SDS011;52639;51.180;20.460;2022-07-21T16:17:53;6.35;;;2.72;;
65863;SDS011;52639;51.180;20.460;2022-07-21T16:21:57;7.40;;;3.53;;
65863;SDS011;52639;51.180;20.460;2022-07-21T16:26:02;8.27;;;3.42;;
65863;SDS011;52639;51.180;20.460;2022-07-21T16:30:06;20.33;;;3.88;;
65863;SDS011;52639;51.180;20.460;2022-07-21T16:34:10;9.95;;;3.35;;
65863;SDS011;52639;51.180;20.460;2022-07-21T16:38:14;7.57;;;3.72;;
65863;SDS011;52639;51.180;20.460;2022-07-21T16:42:19;7.07;;;3.03;;
65863;SDS011;52639;51.180;20.460;2022-07-21T16:46:22;8.15;;;3.40;;
65863;SDS011;52639;51.180;20.460;2022-07-21T16:50:25;6.45;;;3.15;;
65863;SDS011;52639;51.180;20.460;2022-07-21T16:54:29;5.93;;;2.85;;
65863;SDS011;52639;51.180;20.460;2022-07-21T16:58:34;5.15;;;2.72;;
65863;SDS011;52639;51.180;20.460;2022-07-21T17:02:37;4.68;;;2.90;;
65863;SDS011;52639;51.180;20.460;2022-07-21T17:06:41;15.98;;;3.50;;
65863;SDS011;52639;51.180;20.460;2022-07-21T17:10:48;6.00;;;2.92;;
65863;SDS011;52639;51.180;20.460;2022-07-21T17:14:56;5.57;;;3.38;;
65863;SDS011;52639;51.180;20.460;2022-07-21T17:18:59;9.13;;;4.50;;
65863;SDS011;52639;51.180;20.460;2022-07-21T17:23:04;16.52;;;9.68;;
65863;SDS011;52639;51.180;20.460;2022-07-21T17:27:08;17.88;;;9.35;;
65863;SDS011;52639;51.180;20.460;2022-07-21T17:31:13;13.43;;;8.10;;
65863;SDS011;52639;51.180;20.460;2022-07-21T17:35:18;13.55;;;7.47;;
65863;SDS011;52639;51.180;20.460;2022-07-21T17:39:21;13.20;;;7.25;;
65863;SDS011;52639;51.180;20.460;2022-07-21T17:43:24;10.68;;;6.25;;
65863;SDS011;52639;51.180;20.460;2022-07-21T17:47:29;10.75;;;6.03;;
65863;SDS011;52639;51.180;20.460;2022-07-21T17:51:33;6.03;;;3.38;;
65863;SDS011;52639;51.180;20.460;2022-07-21T17:55:39;7.43;;;4.10;;
65863;SDS011;52639;51.180;20.460;2022-07-21T17:59:44;13.75;;;4.75;;
65863;SDS011;52639;51.180;20.460;2022-07-21T18:03:50;10.27;;;4.68;;
65863;SDS011;52639;51.180;20.460;2022-07-21T18:07:56;12.38;;;4.50;;
65863;SDS011;52639;51.180;20.460;2022-07-21T18:12:02;14.27;;;4.50;;
65863;SDS011;52639;51.180;20.460;2022-07-21T18:16:06;12.15;;;4.75;;
65863;SDS011;52639;51.180;20.460;2022-07-21T18:20:14;8.13;;;4.03;;
65863;SDS011;52639;51.180;20.460;2022-07-21T18:24:19;6.45;;;3.63;;
65863;SDS011;52639;51.180;20.460;2022-07-21T18:28:23;7.57;;;3.92;;
65863;SDS011;52639;51.180;20.460;2022-07-21T18:32:26;13.70;;;5.03;;
65863;SDS011;52639;51.180;20.460;2022-07-21T18:36:31;8.90;;;4.22;;
65863;SDS011;52639;51.180;20.460;2022-07-21T18:40:34;8.63;;;4.07;;
65863;SDS011;52639;51.180;20.460;2022-07-21T18:44:39;9.77;;;4.15;;
65863;SDS011;52639;51.180;20.460;2022-07-21T18:48:42;8.68;;;4.88;;
65863;SDS011;52639;51.180;20.460;2022-07-21T18:52:48;8.43;;;5.65;;
65863;SDS011;52639;51.180;20.460;2022-07-21T18:56:52;8.30;;;5.53;;
65863;SDS011;52639;51.180;20.460;2022-07-21T19:00:56;8.75;;;4.65;;
65863;SDS011;52639;51.180;20.460;2022-07-21T19:05:03;15.63;;;5.90;;
65863;SDS011;52639;51.180;20.460;2022-07-21T19:09:09;22.25;;;9.10;;
65863;SDS011;52639;51.180;20.460;2022-07-21T19:13:14;13.85;;;6.28;;
65863;SDS011;52639;51.180;20.460;2022-07-21T19:17:21;14.00;;;8.20;;
65863;SDS011;52639;51.180;20.460;2022-07-21T19:21:28;9.30;;;5.45;;
65863;SDS011;52639;51.180;20.460;2022-07-21T19:25:40;10.77;;;7.00;;
65863;SDS011;52639;51.180;20.460;2022-07-21T19:30:19;10.02;;;7.50;;
65863;SDS011;52639;51.180;20.460;2022-07-21T19:34:24;11.45;;;5.93;;
65863;SDS011;52639;51.180;20.460;2022-07-21T19:38:29;9.63;;;5.43;;
65863;SDS011;52639;51.180;20.460;2022-07-21T19:42:34;10.60;;;6.03;;
65863;SDS011;52639;51.180;20.460;2022-07-21T19:46:37;9.18;;;5.43;;
65863;SDS011;52639;51.180;20.460;2022-07-21T19:50:41;8.63;;;5.53;;
65863;SDS011;52639;51.180;20.460;2022-07-21T19:54:46;9.80;;;5.75;;
65863;SDS011;52639;51.180;20.460;2022-07-21T19:58:51;10.93;;;5.25;;
65863;SDS011;52639;51.180;20.460;2022-07-21T20:02:54;7.43;;;5.47;;
65863;SDS011;52639;51.180;20.460;2022-07-21T20:06:58;9.38;;;5.60;;
65863;SDS011;52639;51.180;20.460;2022-07-21T20:11:03;13.05;;;5.68;;
65863;SDS011;52639;51.180;20.460;2022-07-21T20:15:11;9.88;;;5.50;;
65863;SDS011;52639;51.180;20.460;2022-07-21T20:19:15;11.55;;;6.30;;
65863;SDS011;52639;51.180;20.460;2022-07-21T20:23:18;10.05;;;6.07;;
65863;SDS011;52639;51.180;20.460;2022-07-21T20:27:22;8.82;;;5.85;;
65863;SDS011;52639;51.180;20.460;2022-07-21T20:31:27;11.02;;;5.93;;
65863;SDS011;52639;51.180;20.460;2022-07-21T20:35:30;12.55;;;6.50;;
65863;SDS011;52639;51.180;20.460;2022-07-21T20:39:34;10.75;;;6.05;;
65863;SDS011;52639;51.180;20.460;2022-07-21T20:43:37;15.43;;;5.85;;
65863;SDS011;52639;51.180;20.460;2022-07-21T20:47:43;9.15;;;6.03;;
65863;SDS011;52639;51.180;20.460;2022-07-21T20:51:46;8.77;;;6.20;;
65863;SDS011;52639;51.180;20.460;2022-07-21T20:55:50;13.27;;;6.43;;
65863;SDS011;52639;51.180;20.460;2022-07-21T20:59:53;12.18;;;6.63;;
65863;SDS011;52639;51.180;20.460;2022-07-21T21:03:58;13.02;;;6.20;;
65863;SDS011;52639;51.180;20.460;2022-07-21T21:08:02;9.45;;;6.40;;
65863;SDS011;52639;51.180;20.460;2022-07-21T21:12:07;13.63;;;6.68;;
65863;SDS011;52639;51.180;20.460;2022-07-21T21:16:10;11.75;;;6.68;;
65863;SDS011;52639;51.180;20.460;2022-07-21T21:20:16;10.43;;;6.45;;
65863;SDS011;52639;51.180;20.460;2022-07-21T21:24:19;10.63;;;5.80;;
65863;SDS011;52639;51.180;20.460;2022-07-21T21:28:23;14.63;;;6.30;;
65863;SDS011;52639;51.180;20.460;2022-07-21T21:32:26;12.38;;;6.03;;
65863;SDS011;52639;51.180;20.460;2022-07-21T21:36:31;13.57;;;6.20;;
65863;SDS011;52639;51.180;20.460;2022-07-21T21:40:34;9.05;;;5.85;;
65863;SDS011;52639;51.180;20.460;2022-07-21T21:44:38;9.80;;;6.88;;
65863;SDS011;52639;51.180;20.460;2022-07-21T21:48:40;10.13;;;6.15;;
65863;SDS011;52639;51.180;20.460;2022-07-21T21:52:46;15.07;;;6.53;;
65863;SDS011;52639;51.180;20.460;2022-07-21T21:56:49;10.40;;;6.60;;
65863;SDS011;52639;51.180;20.460;2022-07-21T22:00:52;13.02;;;7.30;;
65863;SDS011;52639;51.180;20.460;2022-07-21T22:04:56;9.63;;;6.40;;
65863;SDS011;52639;51.180;20.460;2022-07-21T22:09:00;13.65;;;6.90;;
65863;SDS011;52639;51.180;20.460;2022-07-21T22:13:03;10.93;;;6.88;;
65863;SDS011;52639;51.180;20.460;2022-07-21T22:17:06;13.60;;;7.13;;
65863;SDS011;52639;51.180;20.460;2022-07-21T22:21:09;11.00;;;7.18;;
65863;SDS011;52639;51.180;20.460;2022-07-21T22:25:13;10.07;;;6.20;;
65863;SDS011;52639;51.180;20.460;2022-07-21T22:29:17;10.43;;;6.63;;
65863;SDS011;52639;51.180;20.460;2022-07-21T22:33:20;10.70;;;6.65;;
65863;SDS011;52639;51.180;20.460;2022-07-21T22:37:22;9.10;;;6.30;;
65863;SDS011;52639;51.180;20.460;2022-07-21T22:41:27;9.35;;;6.20;;
65863;SDS011;52639;51.180;20.460;2022-07-21T22:45:29;14.48;;;7.35;;
65863;SDS011;52639;51.180;20.460;2022-07-21T22:49:38;20.45;;;7.10;;
65863;SDS011;52639;51.180;20.460;2022-07-21T22:53:41;8.55;;;6.10;;
65863;SDS011;52639;51.180;20.460;2022-07-21T22:57:45;13.18;;;7.32;;
65863;SDS011;52639;51.180;20.460;2022-07-21T23:01:48;13.82;;;7.00;;
65863;SDS011;52639;51.180;20.460;2022-07-21T23:05:51;10.70;;;6.82;;
65863;SDS011;52639;51.180;20.460;2022-07-21T23:09:53;10.00;;;6.85;;
65863;SDS011;52639;51.180;20.460;2022-07-21T23:13:58;11.05;;;6.60;;
65863;SDS011;52639;51.180;20.460;2022-07-21T23:18:01;11.43;;;6.90;;
65863;SDS011;52639;51.180;20.460;2022-07-21T23:22:03;12.35;;;7.15;;
65863;SDS011;52639;51.180;20.460;2022-07-21T23:26:06;10.48;;;6.55;;
65863;SDS011;52639;51.180;20.460;2022-07-21T23:30:11;10.07;;;6.30;;
65863;SDS011;52639;51.180;20.460;2022-07-21T23:34:13;11.40;;;6.60;;
65863;SDS011;52639;51.180;20.460;2022-07-21T23:38:16;13.07;;;6.60;;
65863;SDS011;52639;51.180;20.460;2022-07-21T23:42:18;9.48;;;6.50;;
65863;SDS011;52639;51.180;20.460;2022-07-21T23:46:23;11.77;;;7.32;;
65863;SDS011;52639;51.180;20.460;2022-07-21T23:50:25;12.50;;;7.03;;
65863;SDS011;52639;51.180;20.460;2022-07-21T23:54:28;12.20;;;7.00;;
65863;SDS011;52639;51.180;20.460;2022-07-21T23:58:31;10.38;;;6.57;;
